sensor_id;sensor_type;location;lat;lon;timestamp;temperature;humidity
3699;DHT22;1865;50.918;7.092;2023-06-22T00:00:27;25.90;52.20
3699;DHT22;1865;50.918;7.092;2023-06-22T00:02:52;25.90;51.30
3699;DHT22;1865;50.918;7.092;2023-06-22T00:05:18;25.90;50.40
3699;DHT22;1865;50.918;7.092;2023-06-22T00:07:43;25.90;50.50
3699;DHT22;1865;50.918;7.092;2023-06-22T00:10:09;25.90;51.00
3699;DHT22;1865;50.918;7.092;2023-06-22T00:12:35;25.90;51.30
3699;DHT22;1865;50.918;7.092;2023-06-22T00:15:00;25.90;51.50
3699;DHT22;1865;50.918;7.092;2023-06-22T00:17:26;25.90;51.50
3699;DHT22;1865;50.918;7.092;2023-06-22T00:19:51;25.90;50.60
3699;DHT22;1865;50.918;7.092;2023-06-22T00:22:19;25.90;48.40
3699;DHT22;1865;50.918;7.092;2023-06-22T00:24:54;25.90;47.90
3699;DHT22;1865;50.918;7.092;2023-06-22T00:27:19;25.90;47.60
3699;DHT22;1865;50.918;7.092;2023-06-22T00:29:45;25.90;47.00
3699;DHT22;1865;50.918;7.092;2023-06-22T00:32:10;26.00;48.20
3699;DHT22;1865;50.918;7.092;2023-06-22T00:34:36;26.00;47.30
3699;DHT22;1865;50.918;7.092;2023-06-22T00:37:01;26.00;47.50
3699;DHT22;1865;50.918;7.092;2023-06-22T00:39:27;26.00;47.50
3699;DHT22;1865;50.918;7.092;2023-06-22T00:41:53;26.00;48.30
3699;DHT22;1865;50.918;7.092;2023-06-22T00:44:18;26.00;49.10
3699;DHT22;1865;50.918;7.092;2023-06-22T00:46:44;26.00;49.40
3699;DHT22;1865;50.918;7.092;2023-06-22T00:49:09;26.00;48.80
3699;DHT22;1865;50.918;7.092;2023-06-22T00:51:35;26.00;49.10
3699;DHT22;1865;50.918;7.092;2023-06-22T00:54:04;26.00;48.70
3699;DHT22;1865;50.918;7.092;2023-06-22T00:56:30;26.00;48.20
3699;DHT22;1865;50.918;7.092;2023-06-22T00:58:58;26.00;48.60
3699;DHT22;1865;50.918;7.092;2023-06-22T01:01:24;26.00;49.00
3699;DHT22;1865;50.918;7.092;2023-06-22T01:03:50;26.00;49.10
3699;DHT22;1865;50.918;7.092;2023-06-22T01:06:21;26.00;49.40
3699;DHT22;1865;50.918;7.092;2023-06-22T01:09:00;25.90;49.70
3699;DHT22;1865;50.918;7.092;2023-06-22T01:11:45;25.90;49.90
3699;DHT22;1865;50.918;7.092;2023-06-22T01:14:20;26.00;50.50
3699;DHT22;1865;50.918;7.092;2023-06-22T01:16:48;25.90;50.30
3699;DHT22;1865;50.918;7.092;2023-06-22T01:19:50;25.90;50.60
3699;DHT22;1865;50.918;7.092;2023-06-22T01:22:24;25.80;50.60
3699;DHT22;1865;50.918;7.092;2023-06-22T01:25:20;25.80;51.10
3699;DHT22;1865;50.918;7.092;2023-06-22T01:28:03;25.80;51.00
3699;DHT22;1865;50.918;7.092;2023-06-22T01:30:31;25.70;51.10
3699;DHT22;1865;50.918;7.092;2023-06-22T01:33:00;25.70;51.10
3699;DHT22;1865;50.918;7.092;2023-06-22T01:35:26;25.70;51.50
3699;DHT22;1865;50.918;7.092;2023-06-22T01:37:52;25.70;51.90
3699;DHT22;1865;50.918;7.092;2023-06-22T01:40:19;25.70;51.30
3699;DHT22;1865;50.918;7.092;2023-06-22T01:42:46;25.70;51.30
3699;DHT22;1865;50.918;7.092;2023-06-22T01:45:12;25.70;51.30
3699;DHT22;1865;50.918;7.092;2023-06-22T01:47:39;25.60;50.40
3699;DHT22;1865;50.918;7.092;2023-06-22T01:50:05;25.60;50.50
3699;DHT22;1865;50.918;7.092;2023-06-22T01:52:31;25.60;49.90
3699;DHT22;1865;50.918;7.092;2023-06-22T01:54:59;25.60;49.10
3699;DHT22;1865;50.918;7.092;2023-06-22T01:57:25;25.60;48.60
3699;DHT22;1865;50.918;7.092;2023-06-22T02:00:04;25.60;48.40
3699;DHT22;1865;50.918;7.092;2023-06-22T02:02:41;25.70;48.50
3699;DHT22;1865;50.918;7.092;2023-06-22T02:05:12;25.60;49.20
3699;DHT22;1865;50.918;7.092;2023-06-22T02:07:52;25.70;49.60
3699;DHT22;1865;50.918;7.092;2023-06-22T02:10:23;25.70;50.30
3699;DHT22;1865;50.918;7.092;2023-06-22T02:12:50;25.70;49.60
3699;DHT22;1865;50.918;7.092;2023-06-22T02:15:17;25.70;49.90
3699;DHT22;1865;50.918;7.092;2023-06-22T02:17:43;25.60;50.00
3699;DHT22;1865;50.918;7.092;2023-06-22T02:20:14;25.60;50.00
3699;DHT22;1865;50.918;7.092;2023-06-22T02:22:41;25.60;50.20
3699;DHT22;1865;50.918;7.092;2023-06-22T02:25:07;25.50;50.70
3699;DHT22;1865;50.918;7.092;2023-06-22T02:27:32;25.50;50.40
3699;DHT22;1865;50.918;7.092;2023-06-22T02:29:58;25.50;50.60
3699;DHT22;1865;50.918;7.092;2023-06-22T02:32:23;25.50;50.80
3699;DHT22;1865;50.918;7.092;2023-06-22T02:34:49;25.50;51.20
3699;DHT22;1865;50.918;7.092;2023-06-22T02:37:14;25.40;51.30
3699;DHT22;1865;50.918;7.092;2023-06-22T02:39:40;25.40;51.50
3699;DHT22;1865;50.918;7.092;2023-06-22T02:42:06;25.40;52.30
3699;DHT22;1865;50.918;7.092;2023-06-22T02:44:31;25.30;51.70
3699;DHT22;1865;50.918;7.092;2023-06-22T02:46:57;25.30;51.80
3699;DHT22;1865;50.918;7.092;2023-06-22T02:49:23;25.20;51.70
3699;DHT22;1865;50.918;7.092;2023-06-22T02:51:49;25.20;51.70
3699;DHT22;1865;50.918;7.092;2023-06-22T02:54:15;25.10;51.40
3699;DHT22;1865;50.918;7.092;2023-06-22T02:56:40;25.10;51.50
3699;DHT22;1865;50.918;7.092;2023-06-22T02:59:06;25.10;51.40
3699;DHT22;1865;50.918;7.092;2023-06-22T03:01:32;25.10;51.40
3699;DHT22;1865;50.918;7.092;2023-06-22T03:04:08;25.00;51.70
3699;DHT22;1865;50.918;7.092;2023-06-22T03:06:33;25.00;51.30
3699;DHT22;1865;50.918;7.092;2023-06-22T03:09:00;25.00;51.40
3699;DHT22;1865;50.918;7.092;2023-06-22T03:11:26;25.00;51.80
3699;DHT22;1865;50.918;7.092;2023-06-22T03:13:52;25.00;52.20
3699;DHT22;1865;50.918;7.092;2023-06-22T03:16:19;24.90;52.50
3699;DHT22;1865;50.918;7.092;2023-06-22T03:18:44;24.90;52.50
3699;DHT22;1865;50.918;7.092;2023-06-22T03:21:10;24.90;52.90
3699;DHT22;1865;50.918;7.092;2023-06-22T03:23:36;24.80;52.90
3699;DHT22;1865;50.918;7.092;2023-06-22T03:26:02;24.60;52.90
3699;DHT22;1865;50.918;7.092;2023-06-22T03:28:27;24.70;53.30
3699;DHT22;1865;50.918;7.092;2023-06-22T03:30:53;24.70;53.30
3699;DHT22;1865;50.918;7.092;2023-06-22T03:33:18;24.70;53.40
3699;DHT22;1865;50.918;7.092;2023-06-22T03:35:44;24.60;53.50
3699;DHT22;1865;50.918;7.092;2023-06-22T03:38:09;24.70;53.60
3699;DHT22;1865;50.918;7.092;2023-06-22T03:40:35;24.60;53.70
3699;DHT22;1865;50.918;7.092;2023-06-22T03:43:00;24.60;53.60
3699;DHT22;1865;50.918;7.092;2023-06-22T03:45:26;24.60;53.60
3699;DHT22;1865;50.918;7.092;2023-06-22T03:47:51;24.60;54.20
3699;DHT22;1865;50.918;7.092;2023-06-22T03:50:17;24.60;54.30
3699;DHT22;1865;50.918;7.092;2023-06-22T03:52:42;24.70;54.40
3699;DHT22;1865;50.918;7.092;2023-06-22T03:55:08;24.60;54.30
3699;DHT22;1865;50.918;7.092;2023-06-22T03:57:34;24.70;54.40
3699;DHT22;1865;50.918;7.092;2023-06-22T04:00:02;24.60;54.30
3699;DHT22;1865;50.918;7.092;2023-06-22T04:02:30;24.60;54.40
3699;DHT22;1865;50.918;7.092;2023-06-22T04:04:56;24.60;54.10
3699;DHT22;1865;50.918;7.092;2023-06-22T04:07:21;24.70;54.00
3699;DHT22;1865;50.918;7.092;2023-06-22T04:09:47;24.60;53.70
3699;DHT22;1865;50.918;7.092;2023-06-22T04:12:13;24.70;53.60
3699;DHT22;1865;50.918;7.092;2023-06-22T04:14:38;24.80;53.50
3699;DHT22;1865;50.918;7.092;2023-06-22T04:17:04;24.80;53.20
3699;DHT22;1865;50.918;7.092;2023-06-22T04:19:30;24.90;53.20
3699;DHT22;1865;50.918;7.092;2023-06-22T04:21:55;25.00;53.70
3699;DHT22;1865;50.918;7.092;2023-06-22T04:24:21;25.00;53.00
3699;DHT22;1865;50.918;7.092;2023-06-22T04:26:46;25.00;52.70
3699;DHT22;1865;50.918;7.092;2023-06-22T04:29:13;25.00;52.90
3699;DHT22;1865;50.918;7.092;2023-06-22T04:31:39;25.00;53.20
3699;DHT22;1865;50.918;7.092;2023-06-22T04:34:05;25.00;53.30
3699;DHT22;1865;50.918;7.092;2023-06-22T04:36:39;25.00;52.90
3699;DHT22;1865;50.918;7.092;2023-06-22T04:39:07;25.00;52.90
3699;DHT22;1865;50.918;7.092;2023-06-22T04:41:40;25.10;52.50
3699;DHT22;1865;50.918;7.092;2023-06-22T04:44:18;25.10;52.20
3699;DHT22;1865;50.918;7.092;2023-06-22T04:46:59;25.10;52.00
3699;DHT22;1865;50.918;7.092;2023-06-22T04:49:34;25.20;52.40
3699;DHT22;1865;50.918;7.092;2023-06-22T04:52:05;25.30;52.60
3699;DHT22;1865;50.918;7.092;2023-06-22T04:54:31;25.30;52.20
3699;DHT22;1865;50.918;7.092;2023-06-22T04:57:01;25.30;52.50
3699;DHT22;1865;50.918;7.092;2023-06-22T04:59:28;25.30;52.70
3699;DHT22;1865;50.918;7.092;2023-06-22T05:01:56;25.30;52.70
3699;DHT22;1865;50.918;7.092;2023-06-22T05:04:22;25.30;52.80
3699;DHT22;1865;50.918;7.092;2023-06-22T05:06:51;25.30;52.80
3699;DHT22;1865;50.918;7.092;2023-06-22T05:09:18;25.30;53.20
3699;DHT22;1865;50.918;7.092;2023-06-22T05:11:44;25.30;53.20
3699;DHT22;1865;50.918;7.092;2023-06-22T05:14:10;25.40;53.00
3699;DHT22;1865;50.918;7.092;2023-06-22T05:16:36;25.40;53.20
3699;DHT22;1865;50.918;7.092;2023-06-22T05:19:02;25.40;53.40
3699;DHT22;1865;50.918;7.092;2023-06-22T05:21:29;25.50;53.40
3699;DHT22;1865;50.918;7.092;2023-06-22T05:23:56;25.50;53.50
3699;DHT22;1865;50.918;7.092;2023-06-22T05:26:26;25.50;53.50
3699;DHT22;1865;50.918;7.092;2023-06-22T05:28:52;25.60;54.30
3699;DHT22;1865;50.918;7.092;2023-06-22T05:31:19;25.60;53.50
3699;DHT22;1865;50.918;7.092;2023-06-22T05:33:45;25.70;53.00
3699;DHT22;1865;50.918;7.092;2023-06-22T05:36:11;25.80;53.00
3699;DHT22;1865;50.918;7.092;2023-06-22T05:38:38;25.80;53.00
3699;DHT22;1865;50.918;7.092;2023-06-22T05:41:04;25.90;52.70
3699;DHT22;1865;50.918;7.092;2023-06-22T05:43:30;25.90;52.50
3699;DHT22;1865;50.918;7.092;2023-06-22T05:45:56;25.90;52.50
3699;DHT22;1865;50.918;7.092;2023-06-22T05:48:22;25.90;52.20
3699;DHT22;1865;50.918;7.092;2023-06-22T05:50:47;26.00;52.60
3699;DHT22;1865;50.918;7.092;2023-06-22T05:53:13;26.10;52.30
3699;DHT22;1865;50.918;7.092;2023-06-22T05:55:38;26.10;52.20
3699;DHT22;1865;50.918;7.092;2023-06-22T05:58:04;26.20;52.20
3699;DHT22;1865;50.918;7.092;2023-06-22T06:00:30;26.20;52.30
3699;DHT22;1865;50.918;7.092;2023-06-22T06:02:55;26.20;52.40
3699;DHT22;1865;50.918;7.092;2023-06-22T06:05:22;26.30;52.20
3699;DHT22;1865;50.918;7.092;2023-06-22T06:07:48;26.30;51.80
3699;DHT22;1865;50.918;7.092;2023-06-22T06:10:13;26.40;51.60
3699;DHT22;1865;50.918;7.092;2023-06-22T06:12:39;26.40;51.50
3699;DHT22;1865;50.918;7.092;2023-06-22T06:15:05;26.40;51.40
3699;DHT22;1865;50.918;7.092;2023-06-22T06:17:31;26.40;51.30
3699;DHT22;1865;50.918;7.092;2023-06-22T06:19:56;26.50;51.10
3699;DHT22;1865;50.918;7.092;2023-06-22T06:22:23;26.50;51.00
3699;DHT22;1865;50.918;7.092;2023-06-22T06:24:49;26.60;50.90
3699;DHT22;1865;50.918;7.092;2023-06-22T06:27:15;26.70;50.90
3699;DHT22;1865;50.918;7.092;2023-06-22T06:29:41;26.70;50.90
3699;DHT22;1865;50.918;7.092;2023-06-22T06:32:07;26.80;50.70
3699;DHT22;1865;50.918;7.092;2023-06-22T06:34:33;26.90;50.30
3699;DHT22;1865;50.918;7.092;2023-06-22T06:36:58;27.00;50.60
3699;DHT22;1865;50.918;7.092;2023-06-22T06:39:24;27.00;50.60
3699;DHT22;1865;50.918;7.092;2023-06-22T06:41:50;26.90;49.10
3699;DHT22;1865;50.918;7.092;2023-06-22T06:44:16;26.80;49.50
3699;DHT22;1865;50.918;7.092;2023-06-22T06:46:41;26.80;49.60
3699;DHT22;1865;50.918;7.092;2023-06-22T06:49:07;26.80;49.80
3699;DHT22;1865;50.918;7.092;2023-06-22T06:51:33;26.90;49.60
3699;DHT22;1865;50.918;7.092;2023-06-22T06:53:58;27.00;50.20
3699;DHT22;1865;50.918;7.092;2023-06-22T06:56:24;27.00;50.00
3699;DHT22;1865;50.918;7.092;2023-06-22T06:58:50;27.10;49.40
3699;DHT22;1865;50.918;7.092;2023-06-22T07:01:16;27.20;49.00
3699;DHT22;1865;50.918;7.092;2023-06-22T07:03:42;27.20;49.20
3699;DHT22;1865;50.918;7.092;2023-06-22T07:06:08;27.30;49.20
3699;DHT22;1865;50.918;7.092;2023-06-22T07:08:34;27.40;49.60
3699;DHT22;1865;50.918;7.092;2023-06-22T07:11:01;27.50;49.80
3699;DHT22;1865;50.918;7.092;2023-06-22T07:13:27;27.60;49.30
3699;DHT22;1865;50.918;7.092;2023-06-22T07:15:53;27.50;49.40
3699;DHT22;1865;50.918;7.092;2023-06-22T07:18:19;27.60;49.50
3699;DHT22;1865;50.918;7.092;2023-06-22T07:20:45;27.60;49.20
3699;DHT22;1865;50.918;7.092;2023-06-22T07:23:10;27.70;49.00
3699;DHT22;1865;50.918;7.092;2023-06-22T07:25:36;27.70;49.00
3699;DHT22;1865;50.918;7.092;2023-06-22T07:28:03;27.70;49.10
3699;DHT22;1865;50.918;7.092;2023-06-22T07:30:30;27.70;49.10
3699;DHT22;1865;50.918;7.092;2023-06-22T07:32:57;27.80;49.10
3699;DHT22;1865;50.918;7.092;2023-06-22T07:35:23;27.80;49.10
3699;DHT22;1865;50.918;7.092;2023-06-22T07:37:49;27.90;48.80
3699;DHT22;1865;50.918;7.092;2023-06-22T07:40:14;28.00;48.90
3699;DHT22;1865;50.918;7.092;2023-06-22T07:42:40;28.10;49.00
3699;DHT22;1865;50.918;7.092;2023-06-22T07:45:06;28.20;49.30
3699;DHT22;1865;50.918;7.092;2023-06-22T07:47:34;28.20;49.40
3699;DHT22;1865;50.918;7.092;2023-06-22T07:50:00;28.30;48.90
3699;DHT22;1865;50.918;7.092;2023-06-22T07:52:27;28.40;48.50
3699;DHT22;1865;50.918;7.092;2023-06-22T07:54:52;28.40;48.60
3699;DHT22;1865;50.918;7.092;2023-06-22T07:57:18;28.40;48.70
3699;DHT22;1865;50.918;7.092;2023-06-22T07:59:44;28.40;48.70
3699;DHT22;1865;50.918;7.092;2023-06-22T08:02:10;28.50;48.90
3699;DHT22;1865;50.918;7.092;2023-06-22T08:04:35;28.50;48.80
3699;DHT22;1865;50.918;7.092;2023-06-22T08:07:01;28.60;48.50
3699;DHT22;1865;50.918;7.092;2023-06-22T08:09:31;28.60;48.50
3699;DHT22;1865;50.918;7.092;2023-06-22T08:11:58;28.60;48.40
3699;DHT22;1865;50.918;7.092;2023-06-22T08:14:25;28.80;48.00
3699;DHT22;1865;50.918;7.092;2023-06-22T08:16:51;28.60;47.90
3699;DHT22;1865;50.918;7.092;2023-06-22T08:19:17;28.60;47.90
3699;DHT22;1865;50.918;7.092;2023-06-22T08:21:43;28.60;48.00
3699;DHT22;1865;50.918;7.092;2023-06-22T08:24:09;28.70;48.10
3699;DHT22;1865;50.918;7.092;2023-06-22T08:26:34;28.80;48.10
3699;DHT22;1865;50.918;7.092;2023-06-22T08:29:04;28.80;47.50
3699;DHT22;1865;50.918;7.092;2023-06-22T08:31:31;28.70;47.00
3699;DHT22;1865;50.918;7.092;2023-06-22T08:33:58;28.70;47.80
3699;DHT22;1865;50.918;7.092;2023-06-22T08:36:24;28.80;47.40
3699;DHT22;1865;50.918;7.092;2023-06-22T08:38:50;28.90;47.00
3699;DHT22;1865;50.918;7.092;2023-06-22T08:41:17;29.10;47.10
3699;DHT22;1865;50.918;7.092;2023-06-22T08:43:43;29.20;46.70
3699;DHT22;1865;50.918;7.092;2023-06-22T08:46:09;29.20;46.90
3699;DHT22;1865;50.918;7.092;2023-06-22T08:48:35;29.30;46.90
3699;DHT22;1865;50.918;7.092;2023-06-22T08:51:00;29.40;47.10
3699;DHT22;1865;50.918;7.092;2023-06-22T08:53:26;29.60;46.80
3699;DHT22;1865;50.918;7.092;2023-06-22T08:55:51;29.60;46.10
3699;DHT22;1865;50.918;7.092;2023-06-22T08:58:17;29.60;46.30
3699;DHT22;1865;50.918;7.092;2023-06-22T09:00:43;29.70;46.20
3699;DHT22;1865;50.918;7.092;2023-06-22T09:03:09;29.70;45.00
3699;DHT22;1865;50.918;7.092;2023-06-22T09:05:34;29.70;45.50
3699;DHT22;1865;50.918;7.092;2023-06-22T09:08:00;29.70;45.40
3699;DHT22;1865;50.918;7.092;2023-06-22T09:10:26;29.80;45.60
3699;DHT22;1865;50.918;7.092;2023-06-22T09:12:51;29.90;45.40
3699;DHT22;1865;50.918;7.092;2023-06-22T09:15:17;29.80;45.50
3699;DHT22;1865;50.918;7.092;2023-06-22T09:17:42;29.70;45.30
3699;DHT22;1865;50.918;7.092;2023-06-22T09:20:09;29.70;45.70
3699;DHT22;1865;50.918;7.092;2023-06-22T09:22:36;29.80;45.10
3699;DHT22;1865;50.918;7.092;2023-06-22T09:25:01;29.80;45.30
3699;DHT22;1865;50.918;7.092;2023-06-22T09:27:28;29.90;45.10
3699;DHT22;1865;50.918;7.092;2023-06-22T09:29:54;30.00;45.80
3699;DHT22;1865;50.918;7.092;2023-06-22T09:32:19;30.10;45.50
3699;DHT22;1865;50.918;7.092;2023-06-22T09:34:45;30.20;45.50
3699;DHT22;1865;50.918;7.092;2023-06-22T09:37:10;30.30;45.50
3699;DHT22;1865;50.918;7.092;2023-06-22T09:39:36;30.40;44.80
3699;DHT22;1865;50.918;7.092;2023-06-22T09:42:02;30.50;44.80
3699;DHT22;1865;50.918;7.092;2023-06-22T09:44:28;30.50;45.00
3699;DHT22;1865;50.918;7.092;2023-06-22T09:46:53;30.50;44.40
3699;DHT22;1865;50.918;7.092;2023-06-22T09:49:19;30.60;44.10
3699;DHT22;1865;50.918;7.092;2023-06-22T09:51:44;30.70;44.20
3699;DHT22;1865;50.918;7.092;2023-06-22T09:54:10;30.80;43.70
3699;DHT22;1865;50.918;7.092;2023-06-22T09:56:35;30.60;44.10
3699;DHT22;1865;50.918;7.092;2023-06-22T09:59:03;30.60;44.20
3699;DHT22;1865;50.918;7.092;2023-06-22T10:01:28;30.70;44.50
3699;DHT22;1865;50.918;7.092;2023-06-22T10:03:55;30.80;44.00
3699;DHT22;1865;50.918;7.092;2023-06-22T10:06:21;30.70;43.90
3699;DHT22;1865;50.918;7.092;2023-06-22T10:08:47;30.70;43.90
3699;DHT22;1865;50.918;7.092;2023-06-22T10:11:14;30.60;43.80
3699;DHT22;1865;50.918;7.092;2023-06-22T10:13:39;30.60;44.20
3699;DHT22;1865;50.918;7.092;2023-06-22T10:16:05;30.60;44.40
3699;DHT22;1865;50.918;7.092;2023-06-22T10:18:30;30.60;44.60
3699;DHT22;1865;50.918;7.092;2023-06-22T10:20:56;30.50;44.70
3699;DHT22;1865;50.918;7.092;2023-06-22T10:23:22;30.40;45.40
3699;DHT22;1865;50.918;7.092;2023-06-22T10:25:47;30.30;45.60
3699;DHT22;1865;50.918;7.092;2023-06-22T10:28:13;30.20;45.70
3699;DHT22;1865;50.918;7.092;2023-06-22T10:30:39;30.10;46.80
3699;DHT22;1865;50.918;7.092;2023-06-22T10:33:09;30.00;47.60
3699;DHT22;1865;50.918;7.092;2023-06-22T10:35:35;29.90;48.20
3699;DHT22;1865;50.918;7.092;2023-06-22T10:38:03;29.90;48.50
3699;DHT22;1865;50.918;7.092;2023-06-22T10:40:29;29.80;48.80
3699;DHT22;1865;50.918;7.092;2023-06-22T10:42:54;29.70;49.00
3699;DHT22;1865;50.918;7.092;2023-06-22T10:45:20;29.70;49.80
3699;DHT22;1865;50.918;7.092;2023-06-22T10:47:46;29.60;50.80
3699;DHT22;1865;50.918;7.092;2023-06-22T10:50:11;29.50;51.90
3699;DHT22;1865;50.918;7.092;2023-06-22T10:52:37;29.30;53.00
3699;DHT22;1865;50.918;7.092;2023-06-22T10:55:03;29.10;54.60
3699;DHT22;1865;50.918;7.092;2023-06-22T10:57:29;28.90;55.50
3699;DHT22;1865;50.918;7.092;2023-06-22T10:59:54;28.80;55.80
3699;DHT22;1865;50.918;7.092;2023-06-22T11:02:20;28.60;56.60
3699;DHT22;1865;50.918;7.092;2023-06-22T11:04:46;28.50;58.00
3699;DHT22;1865;50.918;7.092;2023-06-22T11:07:12;28.20;59.10
3699;DHT22;1865;50.918;7.092;2023-06-22T11:09:38;28.00;59.30
3699;DHT22;1865;50.918;7.092;2023-06-22T11:12:05;27.70;59.80
3699;DHT22;1865;50.918;7.092;2023-06-22T11:14:31;27.50;60.70
3699;DHT22;1865;50.918;7.092;2023-06-22T11:16:56;27.50;61.40
3699;DHT22;1865;50.918;7.092;2023-06-22T11:19:22;27.40;62.30
3699;DHT22;1865;50.918;7.092;2023-06-22T11:21:47;27.20;64.00
3699;DHT22;1865;50.918;7.092;2023-06-22T11:24:13;26.80;65.90
3699;DHT22;1865;50.918;7.092;2023-06-22T11:26:39;26.40;67.40
3699;DHT22;1865;50.918;7.092;2023-06-22T11:29:04;26.40;68.40
3699;DHT22;1865;50.918;7.092;2023-06-22T11:31:34;26.70;67.20
3699;DHT22;1865;50.918;7.092;2023-06-22T11:34:00;26.80;66.40
3699;DHT22;1865;50.918;7.092;2023-06-22T11:36:26;26.90;65.80
3699;DHT22;1865;50.918;7.092;2023-06-22T11:38:52;26.90;66.10
3699;DHT22;1865;50.918;7.092;2023-06-22T11:41:18;27.00;65.90
3699;DHT22;1865;50.918;7.092;2023-06-22T11:43:44;27.00;65.70
3699;DHT22;1865;50.918;7.092;2023-06-22T11:46:10;27.10;65.30
3699;DHT22;1865;50.918;7.092;2023-06-22T11:48:36;27.20;64.70
3699;DHT22;1865;50.918;7.092;2023-06-22T11:51:02;27.20;64.90
3699;DHT22;1865;50.918;7.092;2023-06-22T11:53:28;27.30;65.00
3699;DHT22;1865;50.918;7.092;2023-06-22T11:55:54;27.50;64.60
3699;DHT22;1865;50.918;7.092;2023-06-22T11:58:20;27.70;64.40
3699;DHT22;1865;50.918;7.092;2023-06-22T12:00:46;28.00;64.30
3699;DHT22;1865;50.918;7.092;2023-06-22T12:03:11;28.40;63.20
3699;DHT22;1865;50.918;7.092;2023-06-22T12:05:38;28.70;62.10
3699;DHT22;1865;50.918;7.092;2023-06-22T12:08:04;28.90;60.90
3699;DHT22;1865;50.918;7.092;2023-06-22T12:10:29;29.10;60.30
3699;DHT22;1865;50.918;7.092;2023-06-22T12:12:55;29.20;60.10
3699;DHT22;1865;50.918;7.092;2023-06-22T12:15:20;29.20;59.40
3699;DHT22;1865;50.918;7.092;2023-06-22T12:17:46;29.10;59.20
3699;DHT22;1865;50.918;7.092;2023-06-22T12:20:13;29.00;59.30
3699;DHT22;1865;50.918;7.092;2023-06-22T12:22:40;28.80;59.00
3699;DHT22;1865;50.918;7.092;2023-06-22T12:25:07;28.60;59.60
3699;DHT22;1865;50.918;7.092;2023-06-22T12:27:32;28.40;60.60
3699;DHT22;1865;50.918;7.092;2023-06-22T12:29:58;28.30;61.10
3699;DHT22;1865;50.918;7.092;2023-06-22T12:32:23;28.20;61.70
3699;DHT22;1865;50.918;7.092;2023-06-22T12:34:49;28.20;62.10
3699;DHT22;1865;50.918;7.092;2023-06-22T12:39:49;28.10;62.80
3699;DHT22;1865;50.918;7.092;2023-06-22T12:42:16;28.20;63.00
3699;DHT22;1865;50.918;7.092;2023-06-22T12:44:41;28.40;63.00
3699;DHT22;1865;50.918;7.092;2023-06-22T12:47:07;28.60;62.60
3699;DHT22;1865;50.918;7.092;2023-06-22T12:49:36;28.80;61.80
3699;DHT22;1865;50.918;7.092;2023-06-22T12:52:03;28.90;60.90
3699;DHT22;1865;50.918;7.092;2023-06-22T12:54:28;29.20;61.10
3699;DHT22;1865;50.918;7.092;2023-06-22T12:56:55;29.60;60.30
3699;DHT22;1865;50.918;7.092;2023-06-22T12:59:21;29.90;58.60
3699;DHT22;1865;50.918;7.092;2023-06-22T13:01:46;30.30;58.70
3699;DHT22;1865;50.918;7.092;2023-06-22T13:04:12;30.50;58.10
3699;DHT22;1865;50.918;7.092;2023-06-22T13:06:41;30.70;57.00
3699;DHT22;1865;50.918;7.092;2023-06-22T13:09:06;30.60;55.90
3699;DHT22;1865;50.918;7.092;2023-06-22T13:11:32;30.50;55.40
3699;DHT22;1865;50.918;7.092;2023-06-22T13:13:58;30.50;55.60
3699;DHT22;1865;50.918;7.092;2023-06-22T13:16:23;30.60;55.50
3699;DHT22;1865;50.918;7.092;2023-06-22T13:18:49;30.60;55.50
3699;DHT22;1865;50.918;7.092;2023-06-22T13:21:14;30.80;55.40
3699;DHT22;1865;50.918;7.092;2023-06-22T13:23:40;31.10;54.30
3699;DHT22;1865;50.918;7.092;2023-06-22T13:26:05;31.50;53.70
3699;DHT22;1865;50.918;7.092;2023-06-22T13:28:31;31.90;53.20
3699;DHT22;1865;50.918;7.092;2023-06-22T13:30:57;32.60;51.90
3699;DHT22;1865;50.918;7.092;2023-06-22T13:33:22;33.40;49.70
3699;DHT22;1865;50.918;7.092;2023-06-22T13:35:48;34.30;47.90
3699;DHT22;1865;50.918;7.092;2023-06-22T13:38:14;35.10;46.10
3699;DHT22;1865;50.918;7.092;2023-06-22T13:40:39;35.80;44.00
3699;DHT22;1865;50.918;7.092;2023-06-22T13:43:05;36.20;43.20
3699;DHT22;1865;50.918;7.092;2023-06-22T13:45:31;36.50;40.70
3699;DHT22;1865;50.918;7.092;2023-06-22T13:47:57;36.40;41.10
3699;DHT22;1865;50.918;7.092;2023-06-22T13:50:22;36.70;39.90
3699;DHT22;1865;50.918;7.092;2023-06-22T13:52:48;36.80;39.70
3699;DHT22;1865;50.918;7.092;2023-06-22T13:55:13;36.60;39.20
3699;DHT22;1865;50.918;7.092;2023-06-22T13:57:40;36.30;39.60
3699;DHT22;1865;50.918;7.092;2023-06-22T14:00:06;36.30;40.20
3699;DHT22;1865;50.918;7.092;2023-06-22T14:02:33;36.40;39.80
3699;DHT22;1865;50.918;7.092;2023-06-22T14:04:58;36.10;39.30
3699;DHT22;1865;50.918;7.092;2023-06-22T14:07:24;36.20;39.00
3699;DHT22;1865;50.918;7.092;2023-06-22T14:09:50;36.30;38.80
3699;DHT22;1865;50.918;7.092;2023-06-22T14:12:16;36.40;38.20
3699;DHT22;1865;50.918;7.092;2023-06-22T14:14:43;36.10;38.80
3699;DHT22;1865;50.918;7.092;2023-06-22T14:17:09;35.50;39.70
3699;DHT22;1865;50.918;7.092;2023-06-22T14:19:35;34.50;41.20
3699;DHT22;1865;50.918;7.092;2023-06-22T14:22:00;33.30;44.00
3699;DHT22;1865;50.918;7.092;2023-06-22T14:24:26;32.40;47.00
3699;DHT22;1865;50.918;7.092;2023-06-22T14:26:51;31.60;49.20
3699;DHT22;1865;50.918;7.092;2023-06-22T14:29:17;30.90;50.80
3699;DHT22;1865;50.918;7.092;2023-06-22T14:31:45;30.60;51.60
3699;DHT22;1865;50.918;7.092;2023-06-22T14:34:11;30.10;53.10
3699;DHT22;1865;50.918;7.092;2023-06-22T14:36:37;29.90;53.60
3699;DHT22;1865;50.918;7.092;2023-06-22T14:39:02;29.70;54.90
3699;DHT22;1865;50.918;7.092;2023-06-22T14:41:29;29.50;55.40
3699;DHT22;1865;50.918;7.092;2023-06-22T14:43:55;29.30;55.90
3699;DHT22;1865;50.918;7.092;2023-06-22T14:46:20;29.20;56.40
3699;DHT22;1865;50.918;7.092;2023-06-22T14:48:46;29.00;56.80
3699;DHT22;1865;50.918;7.092;2023-06-22T14:51:12;28.90;56.90
3699;DHT22;1865;50.918;7.092;2023-06-22T14:53:38;28.80;57.40
3699;DHT22;1865;50.918;7.092;2023-06-22T14:56:04;28.60;58.50
3699;DHT22;1865;50.918;7.092;2023-06-22T14:58:31;28.40;60.20
3699;DHT22;1865;50.918;7.092;2023-06-22T15:00:59;28.20;61.80
3699;DHT22;1865;50.918;7.092;2023-06-22T15:03:25;27.90;63.90
3699;DHT22;1865;50.918;7.092;2023-06-22T15:05:53;27.80;64.80
3699;DHT22;1865;50.918;7.092;2023-06-22T15:08:19;27.70;64.40
3699;DHT22;1865;50.918;7.092;2023-06-22T15:10:45;27.80;64.00
3699;DHT22;1865;50.918;7.092;2023-06-22T15:13:10;27.70;64.20
3699;DHT22;1865;50.918;7.092;2023-06-22T15:15:36;27.70;65.00
3699;DHT22;1865;50.918;7.092;2023-06-22T15:18:02;27.70;65.20
3699;DHT22;1865;50.918;7.092;2023-06-22T15:20:27;27.60;64.30
3699;DHT22;1865;50.918;7.092;2023-06-22T15:22:53;27.40;65.20
3699;DHT22;1865;50.918;7.092;2023-06-22T15:25:19;27.20;66.50
3699;DHT22;1865;50.918;7.092;2023-06-22T15:27:44;27.10;67.40
3699;DHT22;1865;50.918;7.092;2023-06-22T15:30:10;26.80;64.00
3699;DHT22;1865;50.918;7.092;2023-06-22T15:32:36;26.50;64.70
3699;DHT22;1865;50.918;7.092;2023-06-22T15:35:01;26.40;65.30
3699;DHT22;1865;50.918;7.092;2023-06-22T15:37:28;26.40;65.00
3699;DHT22;1865;50.918;7.092;2023-06-22T15:39:53;26.50;64.80
3699;DHT22;1865;50.918;7.092;2023-06-22T15:42:21;26.50;64.50
3699;DHT22;1865;50.918;7.092;2023-06-22T15:44:47;26.40;65.00
3699;DHT22;1865;50.918;7.092;2023-06-22T15:47:12;26.40;64.30
3699;DHT22;1865;50.918;7.092;2023-06-22T15:49:38;26.30;64.70
3699;DHT22;1865;50.918;7.092;2023-06-22T15:52:03;26.20;65.60
3699;DHT22;1865;50.918;7.092;2023-06-22T15:54:29;26.00;65.80
3699;DHT22;1865;50.918;7.092;2023-06-22T15:56:54;25.90;65.60
3699;DHT22;1865;50.918;7.092;2023-06-22T15:59:20;26.00;65.90